sensor_id;sensor_type;location;lat;lon;timestamp;P1;durP1;ratioP1;P2;durP2;ratioP2
39896;SDS011;25567;48.276;14.242;2023-02-23T00:02:17;14.45;;;6.85;;
39896;SDS011;25567;48.276;14.242;2023-02-23T00:04:46;13.60;;;5.90;;
39896;SDS011;25567;48.276;14.242;2023-02-23T00:07:13;17.17;;;6.43;;
39896;SDS011;25567;48.276;14.242;2023-02-23T00:09:44;13.45;;;5.82;;
39896;SDS011;25567;48.276;14.242;2023-02-23T00:12:13;13.02;;;5.57;;
39896;SDS011;25567;48.276;14.242;2023-02-23T00:14:43;14.55;;;6.60;;
39896;SDS011;25567;48.276;14.242;2023-02-23T00:17:11;15.82;;;6.93;;
39896;SDS011;25567;48.276;14.242;2023-02-23T00:19:40;16.60;;;7.30;;
39896;SDS011;25567;48.276;14.242;2023-02-23T00:22:11;16.13;;;6.55;;
39896;SDS011;25567;48.276;14.242;2023-02-23T00:24:38;12.52;;;6.30;;
39896;SDS011;25567;48.276;14.242;2023-02-23T00:27:10;15.50;;;7.50;;
39896;SDS011;25567;48.276;14.242;2023-02-23T00:29:43;18.02;;;8.75;;
39896;SDS011;25567;48.276;14.242;2023-02-23T00:32:15;16.92;;;7.75;;
39896;SDS011;25567;48.276;14.242;2023-02-23T00:34:46;17.13;;;8.13;;
39896;SDS011;25567;48.276;14.242;2023-02-23T00:37:17;17.48;;;8.00;;
39896;SDS011;25567;48.276;14.242;2023-02-23T00:39:45;16.75;;;7.28;;
39896;SDS011;25567;48.276;14.242;2023-02-23T00:42:14;16.15;;;7.18;;
39896;SDS011;25567;48.276;14.242;2023-02-23T00:44:43;17.92;;;7.97;;
39896;SDS011;25567;48.276;14.242;2023-02-23T00:47:13;16.95;;;7.60;;
39896;SDS011;25567;48.276;14.242;2023-02-23T00:49:42;16.45;;;7.32;;
39896;SDS011;25567;48.276;14.242;2023-02-23T00:52:10;14.23;;;7.20;;
39896;SDS011;25567;48.276;14.242;2023-02-23T00:54:40;16.45;;;6.60;;
39896;SDS011;25567;48.276;14.242;2023-02-23T00:57:07;15.00;;;6.60;;
39896;SDS011;25567;48.276;14.242;2023-02-23T00:59:34;13.10;;;6.35;;
39896;SDS011;25567;48.276;14.242;2023-02-23T01:02:03;20.52;;;7.20;;
39896;SDS011;25567;48.276;14.242;2023-02-23T01:04:32;19.17;;;7.45;;
39896;SDS011;25567;48.276;14.242;2023-02-23T01:06:59;15.18;;;6.78;;
39896;SDS011;25567;48.276;14.242;2023-02-23T01:09:29;16.88;;;7.30;;
39896;SDS011;25567;48.276;14.242;2023-02-23T01:11:57;19.23;;;8.27;;
39896;SDS011;25567;48.276;14.242;2023-02-23T01:14:29;19.63;;;7.68;;
39896;SDS011;25567;48.276;14.242;2023-02-23T01:16:58;16.85;;;7.57;;
39896;SDS011;25567;48.276;14.242;2023-02-23T01:19:28;17.85;;;7.85;;
39896;SDS011;25567;48.276;14.242;2023-02-23T01:22:00;21.10;;;7.95;;
39896;SDS011;25567;48.276;14.242;2023-02-23T01:24:28;15.15;;;7.45;;
39896;SDS011;25567;48.276;14.242;2023-02-23T01:26:56;18.17;;;7.68;;
39896;SDS011;25567;48.276;14.242;2023-02-23T01:29:25;20.23;;;7.43;;
39896;SDS011;25567;48.276;14.242;2023-02-23T01:31:54;20.23;;;7.78;;
39896;SDS011;25567;48.276;14.242;2023-02-23T01:34:22;16.30;;;7.60;;
39896;SDS011;25567;48.276;14.242;2023-02-23T01:36:52;18.33;;;8.40;;
39896;SDS011;25567;48.276;14.242;2023-02-23T01:39:20;20.95;;;9.07;;
39896;SDS011;25567;48.276;14.242;2023-02-23T01:41:48;20.75;;;8.88;;
39896;SDS011;25567;48.276;14.242;2023-02-23T01:46:47;20.00;;;9.35;;
39896;SDS011;25567;48.276;14.242;2023-02-23T01:49:19;22.73;;;10.27;;
39896;SDS011;25567;48.276;14.242;2023-02-23T01:51:57;29.40;;;11.98;;
39896;SDS011;25567;48.276;14.242;2023-02-23T01:54:35;25.90;;;10.35;;
39896;SDS011;25567;48.276;14.242;2023-02-23T01:57:06;35.78;;;14.82;;
39896;SDS011;25567;48.276;14.242;2023-02-23T01:59:40;33.65;;;15.50;;
39896;SDS011;25567;48.276;14.242;2023-02-23T02:02:12;37.72;;;15.70;;
39896;SDS011;25567;48.276;14.242;2023-02-23T02:04:41;31.20;;;15.27;;
39896;SDS011;25567;48.276;14.242;2023-02-23T02:09:42;39.30;;;15.52;;
39896;SDS011;25567;48.276;14.242;2023-02-23T02:12:31;28.45;;;12.52;;
39896;SDS011;25567;48.276;14.242;2023-02-23T02:15:00;28.08;;;13.15;;
39896;SDS011;25567;48.276;14.242;2023-02-23T02:17:41;25.73;;;12.07;;
39896;SDS011;25567;48.276;14.242;2023-02-23T02:29:14;22.83;;;9.38;;
39896;SDS011;25567;48.276;14.242;2023-02-23T02:37:41;26.08;;;11.25;;
39896;SDS011;25567;48.276;14.242;2023-02-23T02:40:14;26.63;;;10.57;;
39896;SDS011;25567;48.276;14.242;2023-02-23T02:48:36;23.55;;;9.85;;
39896;SDS011;25567;48.276;14.242;2023-02-23T02:51:13;25.27;;;10.20;;
39896;SDS011;25567;48.276;14.242;2023-02-23T02:56:35;30.73;;;9.70;;
39896;SDS011;25567;48.276;14.242;2023-02-23T02:59:11;22.33;;;10.63;;
39896;SDS011;25567;48.276;14.242;2023-02-23T03:01:57;26.42;;;10.30;;
39896;SDS011;25567;48.276;14.242;2023-02-23T03:04:40;26.58;;;11.85;;
39896;SDS011;25567;48.276;14.242;2023-02-23T03:07:27;27.08;;;11.88;;
39896;SDS011;25567;48.276;14.242;2023-02-23T03:16:29;28.48;;;11.77;;
39896;SDS011;25567;48.276;14.242;2023-02-23T03:19:16;30.20;;;11.55;;
39896;SDS011;25567;48.276;14.242;2023-02-23T03:25:14;26.02;;;11.48;;
39896;SDS011;25567;48.276;14.242;2023-02-23T03:28:06;29.42;;;11.63;;
39896;SDS011;25567;48.276;14.242;2023-02-23T03:31:11;30.50;;;11.45;;
39896;SDS011;25567;48.276;14.242;2023-02-23T03:37:00;21.40;;;9.50;;
39896;SDS011;25567;48.276;14.242;2023-02-23T03:39:55;21.70;;;8.20;;
39896;SDS011;25567;48.276;14.242;2023-02-23T03:42:46;22.02;;;8.88;;
39896;SDS011;25567;48.276;14.242;2023-02-23T03:45:33;20.27;;;9.45;;
39896;SDS011;25567;48.276;14.242;2023-02-23T03:48:18;26.25;;;10.13;;
39896;SDS011;25567;48.276;14.242;2023-02-23T03:51:02;19.73;;;8.63;;
39896;SDS011;25567;48.276;14.242;2023-02-23T03:53:50;22.25;;;8.82;;
39896;SDS011;25567;48.276;14.242;2023-02-23T03:56:40;20.30;;;8.20;;
39896;SDS011;25567;48.276;14.242;2023-02-23T03:59:29;25.35;;;8.75;;
39896;SDS011;25567;48.276;14.242;2023-02-23T04:02:16;22.88;;;9.50;;
39896;SDS011;25567;48.276;14.242;2023-02-23T04:05:03;26.88;;;9.52;;
39896;SDS011;25567;48.276;14.242;2023-02-23T04:07:50;25.13;;;10.15;;
39896;SDS011;25567;48.276;14.242;2023-02-23T04:10:38;27.73;;;11.27;;
39896;SDS011;25567;48.276;14.242;2023-02-23T04:13:27;25.88;;;10.38;;
39896;SDS011;25567;48.276;14.242;2023-02-23T04:16:00;26.20;;;10.30;;
39896;SDS011;25567;48.276;14.242;2023-02-23T04:18:32;30.13;;;11.10;;
39896;SDS011;25567;48.276;14.242;2023-02-23T04:21:01;25.38;;;10.10;;
39896;SDS011;25567;48.276;14.242;2023-02-23T04:23:34;28.58;;;11.60;;
39896;SDS011;25567;48.276;14.242;2023-02-23T04:26:03;29.10;;;11.63;;
39896;SDS011;25567;48.276;14.242;2023-02-23T04:28:31;29.50;;;10.85;;
39896;SDS011;25567;48.276;14.242;2023-02-23T04:30:59;29.63;;;10.55;;
39896;SDS011;25567;48.276;14.242;2023-02-23T04:33:28;27.08;;;10.65;;
39896;SDS011;25567;48.276;14.242;2023-02-23T04:35:59;24.75;;;11.13;;
39896;SDS011;25567;48.276;14.242;2023-02-23T04:38:26;24.85;;;10.68;;
39896;SDS011;25567;48.276;14.242;2023-02-23T04:40:55;23.85;;;10.48;;
39896;SDS011;25567;48.276;14.242;2023-02-23T04:43:24;26.25;;;10.88;;
39896;SDS011;25567;48.276;14.242;2023-02-23T04:45:51;29.63;;;10.45;;
39896;SDS011;25567;48.276;14.242;2023-02-23T04:48:20;28.67;;;11.20;;
39896;SDS011;25567;48.276;14.242;2023-02-23T04:50:51;30.88;;;10.95;;
39896;SDS011;25567;48.276;14.242;2023-02-23T04:53:20;24.00;;;10.60;;
39896;SDS011;25567;48.276;14.242;2023-02-23T04:55:47;25.23;;;10.40;;
39896;SDS011;25567;48.276;14.242;2023-02-23T04:58:14;27.90;;;12.05;;
39896;SDS011;25567;48.276;14.242;2023-02-23T05:00:43;31.77;;;12.43;;
39896;SDS011;25567;48.276;14.242;2023-02-23T05:03:12;29.65;;;12.65;;
39896;SDS011;25567;48.276;14.242;2023-02-23T05:05:41;28.75;;;12.65;;
39896;SDS011;25567;48.276;14.242;2023-02-23T05:08:09;36.60;;;13.77;;
39896;SDS011;25567;48.276;14.242;2023-02-23T05:10:39;29.35;;;12.80;;
39896;SDS011;25567;48.276;14.242;2023-02-23T05:13:08;32.60;;;12.98;;
39896;SDS011;25567;48.276;14.242;2023-02-23T05:15:39;29.10;;;11.13;;
39896;SDS011;25567;48.276;14.242;2023-02-23T05:18:07;25.98;;;11.68;;
39896;SDS011;25567;48.276;14.242;2023-02-23T05:20:36;26.50;;;10.88;;
39896;SDS011;25567;48.276;14.242;2023-02-23T05:23:03;25.70;;;11.88;;
39896;SDS011;25567;48.276;14.242;2023-02-23T05:25:32;31.10;;;11.93;;
39896;SDS011;25567;48.276;14.242;2023-02-23T05:28:02;29.85;;;11.70;;
39896;SDS011;25567;48.276;14.242;2023-02-23T05:30:34;28.65;;;11.50;;
39896;SDS011;25567;48.276;14.242;2023-02-23T05:33:02;30.20;;;12.32;;
39896;SDS011;25567;48.276;14.242;2023-02-23T05:35:30;25.15;;;11.45;;
39896;SDS011;25567;48.276;14.242;2023-02-23T05:38:00;30.40;;;12.48;;
39896;SDS011;25567;48.276;14.242;2023-02-23T05:40:28;30.27;;;12.07;;
39896;SDS011;25567;48.276;14.242;2023-02-23T05:42:58;30.77;;;11.93;;
39896;SDS011;25567;48.276;14.242;2023-02-23T05:45:28;34.63;;;12.48;;
39896;SDS011;25567;48.276;14.242;2023-02-23T05:47:56;34.15;;;12.10;;
39896;SDS011;25567;48.276;14.242;2023-02-23T05:50:25;32.95;;;13.35;;
39896;SDS011;25567;48.276;14.242;2023-02-23T05:52:56;27.88;;;12.25;;
39896;SDS011;25567;48.276;14.242;2023-02-23T05:55:24;34.45;;;12.98;;
39896;SDS011;25567;48.276;14.242;2023-02-23T05:57:54;31.27;;;12.68;;
39896;SDS011;25567;48.276;14.242;2023-02-23T06:00:23;27.92;;;11.60;;
39896;SDS011;25567;48.276;14.242;2023-02-23T06:02:51;33.70;;;12.93;;
39896;SDS011;25567;48.276;14.242;2023-02-23T06:05:20;29.15;;;12.20;;
39896;SDS011;25567;48.276;14.242;2023-02-23T06:07:48;29.55;;;13.32;;
39896;SDS011;25567;48.276;14.242;2023-02-23T06:10:16;32.22;;;12.82;;
39896;SDS011;25567;48.276;14.242;2023-02-23T06:12:45;30.63;;;12.43;;
39896;SDS011;25567;48.276;14.242;2023-02-23T06:15:14;30.85;;;11.85;;
39896;SDS011;25567;48.276;14.242;2023-02-23T06:17:42;33.58;;;13.52;;
39896;SDS011;25567;48.276;14.242;2023-02-23T06:20:11;27.52;;;11.50;;
39896;SDS011;25567;48.276;14.242;2023-02-23T06:22:40;30.98;;;13.05;;
39896;SDS011;25567;48.276;14.242;2023-02-23T06:25:09;28.25;;;12.77;;
39896;SDS011;25567;48.276;14.242;2023-02-23T06:27:38;28.80;;;12.98;;
39896;SDS011;25567;48.276;14.242;2023-02-23T06:30:06;28.65;;;12.13;;
39896;SDS011;25567;48.276;14.242;2023-02-23T06:32:34;28.92;;;12.05;;
39896;SDS011;25567;48.276;14.242;2023-02-23T06:35:04;27.92;;;12.32;;
39896;SDS011;25567;48.276;14.242;2023-02-23T06:37:34;29.65;;;12.63;;
39896;SDS011;25567;48.276;14.242;2023-02-23T06:40:03;29.08;;;12.77;;
39896;SDS011;25567;48.276;14.242;2023-02-23T06:42:33;27.15;;;12.40;;
39896;SDS011;25567;48.276;14.242;2023-02-23T06:45:03;28.17;;;12.00;;
39896;SDS011;25567;48.276;14.242;2023-02-23T06:47:31;29.30;;;12.80;;
39896;SDS011;25567;48.276;14.242;2023-02-23T06:49:59;37.78;;;14.00;;
39896;SDS011;25567;48.276;14.242;2023-02-23T06:52:27;29.70;;;12.85;;
39896;SDS011;25567;48.276;14.242;2023-02-23T06:55:00;30.45;;;13.23;;
39896;SDS011;25567;48.276;14.242;2023-02-23T06:57:28;29.50;;;11.70;;
39896;SDS011;25567;48.276;14.242;2023-02-23T06:59:57;54.20;;;23.85;;
39896;SDS011;25567;48.276;14.242;2023-02-23T07:02:26;54.85;;;21.55;;
39896;SDS011;25567;48.276;14.242;2023-02-23T07:04:55;31.50;;;14.00;;
39896;SDS011;25567;48.276;14.242;2023-02-23T07:07:23;36.30;;;15.02;;
39896;SDS011;25567;48.276;14.242;2023-02-23T07:09:51;31.52;;;14.38;;
39896;SDS011;25567;48.276;14.242;2023-02-23T07:12:19;31.02;;;12.93;;
39896;SDS011;25567;48.276;14.242;2023-02-23T07:14:47;34.30;;;14.43;;
39896;SDS011;25567;48.276;14.242;2023-02-23T07:17:17;36.05;;;14.02;;
39896;SDS011;25567;48.276;14.242;2023-02-23T07:19:45;36.38;;;13.88;;
39896;SDS011;25567;48.276;14.242;2023-02-23T07:22:13;36.65;;;14.35;;
39896;SDS011;25567;48.276;14.242;2023-02-23T07:24:43;34.63;;;14.20;;
39896;SDS011;25567;48.276;14.242;2023-02-23T07:27:12;33.95;;;14.45;;
39896;SDS011;25567;48.276;14.242;2023-02-23T07:29:41;38.72;;;15.82;;
39896;SDS011;25567;48.276;14.242;2023-02-23T07:32:09;38.58;;;16.92;;
39896;SDS011;25567;48.276;14.242;2023-02-23T07:34:37;44.60;;;16.20;;
39896;SDS011;25567;48.276;14.242;2023-02-23T07:37:06;45.72;;;16.73;;
39896;SDS011;25567;48.276;14.242;2023-02-23T07:39:35;42.28;;;15.88;;
39896;SDS011;25567;48.276;14.242;2023-02-23T07:42:05;47.42;;;16.73;;
39896;SDS011;25567;48.276;14.242;2023-02-23T07:44:32;46.53;;;17.60;;
39896;SDS011;25567;48.276;14.242;2023-02-23T07:47:02;41.15;;;16.45;;
39896;SDS011;25567;48.276;14.242;2023-02-23T07:49:30;41.88;;;17.40;;
39896;SDS011;25567;48.276;14.242;2023-02-23T07:51:59;41.80;;;17.42;;
39896;SDS011;25567;48.276;14.242;2023-02-23T07:54:27;43.13;;;16.85;;
39896;SDS011;25567;48.276;14.242;2023-02-23T07:56:57;42.58;;;17.77;;
39896;SDS011;25567;48.276;14.242;2023-02-23T07:59:27;41.03;;;16.23;;
39896;SDS011;25567;48.276;14.242;2023-02-23T08:01:55;38.95;;;17.52;;
39896;SDS011;25567;48.276;14.242;2023-02-23T08:04:25;40.78;;;17.35;;
39896;SDS011;25567;48.276;14.242;2023-02-23T08:06:53;42.42;;;17.75;;
39896;SDS011;25567;48.276;14.242;2023-02-23T08:09:20;41.90;;;18.25;;
39896;SDS011;25567;48.276;14.242;2023-02-23T08:11:47;42.78;;;17.23;;
39896;SDS011;25567;48.276;14.242;2023-02-23T08:14:16;34.78;;;17.50;;
39896;SDS011;25567;48.276;14.242;2023-02-23T08:16:47;41.50;;;17.48;;
39896;SDS011;25567;48.276;14.242;2023-02-23T08:19:17;42.72;;;16.90;;
39896;SDS011;25567;48.276;14.242;2023-02-23T08:21:49;35.42;;;16.67;;
39896;SDS011;25567;48.276;14.242;2023-02-23T08:24:20;36.67;;;17.15;;
39896;SDS011;25567;48.276;14.242;2023-02-23T08:26:49;40.67;;;16.92;;
39896;SDS011;25567;48.276;14.242;2023-02-23T08:29:18;35.80;;;17.02;;
39896;SDS011;25567;48.276;14.242;2023-02-23T08:31:48;43.55;;;16.75;;
39896;SDS011;25567;48.276;14.242;2023-02-23T08:34:18;42.47;;;16.80;;
39896;SDS011;25567;48.276;14.242;2023-02-23T08:36:47;49.35;;;16.55;;
39896;SDS011;25567;48.276;14.242;2023-02-23T08:39:17;39.20;;;17.20;;
39896;SDS011;25567;48.276;14.242;2023-02-23T08:41:46;54.13;;;18.33;;
39896;SDS011;25567;48.276;14.242;2023-02-23T08:44:13;43.97;;;17.88;;
39896;SDS011;25567;48.276;14.242;2023-02-23T08:46:40;42.97;;;17.75;;
39896;SDS011;25567;48.276;14.242;2023-02-23T08:49:09;41.58;;;17.80;;
39896;SDS011;25567;48.276;14.242;2023-02-23T08:51:37;39.15;;;17.60;;
39896;SDS011;25567;48.276;14.242;2023-02-23T08:54:07;41.00;;;17.90;;
39896;SDS011;25567;48.276;14.242;2023-02-23T08:56:40;41.92;;;18.60;;
39896;SDS011;25567;48.276;14.242;2023-02-23T08:59:09;47.80;;;19.55;;
39896;SDS011;25567;48.276;14.242;2023-02-23T09:01:39;45.85;;;18.20;;
39896;SDS011;25567;48.276;14.242;2023-02-23T09:04:06;53.35;;;19.90;;
39896;SDS011;25567;48.276;14.242;2023-02-23T09:06:33;43.97;;;18.90;;
39896;SDS011;25567;48.276;14.242;2023-02-23T09:09:03;45.67;;;19.05;;
39896;SDS011;25567;48.276;14.242;2023-02-23T09:11:33;44.83;;;19.30;;
39896;SDS011;25567;48.276;14.242;2023-02-23T09:14:02;43.55;;;19.05;;
39896;SDS011;25567;48.276;14.242;2023-02-23T09:16:29;44.60;;;19.30;;
39896;SDS011;25567;48.276;14.242;2023-02-23T09:18:58;44.92;;;18.90;;
39896;SDS011;25567;48.276;14.242;2023-02-23T09:21:27;40.03;;;18.95;;
39896;SDS011;25567;48.276;14.242;2023-02-23T09:23:57;43.42;;;18.38;;
39896;SDS011;25567;48.276;14.242;2023-02-23T09:26:27;41.92;;;17.98;;
39896;SDS011;25567;48.276;14.242;2023-02-23T09:28:56;41.47;;;19.10;;
39896;SDS011;25567;48.276;14.242;2023-02-23T09:31:27;44.90;;;18.58;;
39896;SDS011;25567;48.276;14.242;2023-02-23T09:33:57;44.72;;;19.05;;
39896;SDS011;25567;48.276;14.242;2023-02-23T09:36:29;47.65;;;19.48;;
39896;SDS011;25567;48.276;14.242;2023-02-23T09:38:58;46.22;;;18.58;;
39896;SDS011;25567;48.276;14.242;2023-02-23T09:41:39;41.97;;;19.90;;
39896;SDS011;25567;48.276;14.242;2023-02-23T09:44:24;50.42;;;20.98;;
39896;SDS011;25567;48.276;14.242;2023-02-23T09:49:48;50.83;;;20.30;;
39896;SDS011;25567;48.276;14.242;2023-02-23T09:52:23;48.80;;;20.23;;
39896;SDS011;25567;48.276;14.242;2023-02-23T09:54:54;46.78;;;20.50;;
39896;SDS011;25567;48.276;14.242;2023-02-23T09:57:29;46.08;;;19.35;;
39896;SDS011;25567;48.276;14.242;2023-02-23T10:02:54;47.80;;;19.60;;
39896;SDS011;25567;48.276;14.242;2023-02-23T10:05:27;46.05;;;18.88;;
39896;SDS011;25567;48.276;14.242;2023-02-23T10:08:01;44.33;;;19.08;;
39896;SDS011;25567;48.276;14.242;2023-02-23T10:10:44;48.95;;;19.38;;
39896;SDS011;25567;48.276;14.242;2023-02-23T10:21:20;42.45;;;18.92;;
39896;SDS011;25567;48.276;14.242;2023-02-23T10:24:00;48.13;;;19.45;;
39896;SDS011;25567;48.276;14.242;2023-02-23T10:26:38;42.25;;;18.92;;
39896;SDS011;25567;48.276;14.242;2023-02-23T10:29:14;42.22;;;20.02;;
39896;SDS011;25567;48.276;14.242;2023-02-23T10:32:04;41.30;;;19.45;;
39896;SDS011;25567;48.276;14.242;2023-02-23T10:34:39;46.80;;;20.55;;
39896;SDS011;25567;48.276;14.242;2023-02-23T10:37:08;50.67;;;20.05;;
39896;SDS011;25567;48.276;14.242;2023-02-23T10:39:38;44.80;;;19.95;;
39896;SDS011;25567;48.276;14.242;2023-02-23T10:42:11;47.15;;;20.75;;
39896;SDS011;25567;48.276;14.242;2023-02-23T10:44:45;46.30;;;20.92;;
39896;SDS011;25567;48.276;14.242;2023-02-23T10:47:16;43.92;;;19.77;;
39896;SDS011;25567;48.276;14.242;2023-02-23T10:49:48;54.35;;;21.50;;
39896;SDS011;25567;48.276;14.242;2023-02-23T10:52:19;42.70;;;19.95;;
39896;SDS011;25567;48.276;14.242;2023-02-23T10:54:49;48.60;;;21.55;;
39896;SDS011;25567;48.276;14.242;2023-02-23T10:57:22;49.00;;;21.30;;
39896;SDS011;25567;48.276;14.242;2023-02-23T11:02:35;44.55;;;20.13;;
39896;SDS011;25567;48.276;14.242;2023-02-23T11:05:03;42.13;;;19.90;;
39896;SDS011;25567;48.276;14.242;2023-02-23T11:07:34;43.03;;;20.00;;
39896;SDS011;25567;48.276;14.242;2023-02-23T11:12:56;42.45;;;19.25;;
39896;SDS011;25567;48.276;14.242;2023-02-23T11:18:05;45.30;;;20.45;;
39896;SDS011;25567;48.276;14.242;2023-02-23T11:20:35;57.78;;;21.77;;
39896;SDS011;25567;48.276;14.242;2023-02-23T11:23:10;41.33;;;20.65;;
39896;SDS011;25567;48.276;14.242;2023-02-23T11:25:43;54.28;;;20.42;;
39896;SDS011;25567;48.276;14.242;2023-02-23T11:28:19;48.88;;;20.63;;
39896;SDS011;25567;48.276;14.242;2023-02-23T11:30:59;52.45;;;22.05;;
39896;SDS011;25567;48.276;14.242;2023-02-23T11:33:34;46.55;;;20.60;;
39896;SDS011;25567;48.276;14.242;2023-02-23T11:38:55;55.63;;;22.00;;
39896;SDS011;25567;48.276;14.242;2023-02-23T11:41:30;48.50;;;22.02;;
39896;SDS011;25567;48.276;14.242;2023-02-23T11:44:01;48.92;;;23.17;;
39896;SDS011;25567;48.276;14.242;2023-02-23T11:46:34;46.30;;;22.15;;
39896;SDS011;25567;48.276;14.242;2023-02-23T11:49:05;49.28;;;22.70;;
39896;SDS011;25567;48.276;14.242;2023-02-23T11:51:40;51.58;;;24.23;;
39896;SDS011;25567;48.276;14.242;2023-02-23T11:54:18;53.97;;;22.77;;
39896;SDS011;25567;48.276;14.242;2023-02-23T11:56:51;52.63;;;24.35;;
39896;SDS011;25567;48.276;14.242;2023-02-23T11:59:26;49.47;;;22.83;;
39896;SDS011;25567;48.276;14.242;2023-02-23T12:01:55;53.05;;;23.35;;
39896;SDS011;25567;48.276;14.242;2023-02-23T12:10:03;53.92;;;22.58;;
39896;SDS011;25567;48.276;14.242;2023-02-23T12:12:43;47.35;;;22.35;;
39896;SDS011;25567;48.276;14.242;2023-02-23T12:15:23;49.03;;;23.10;;
39896;SDS011;25567;48.276;14.242;2023-02-23T12:18:00;50.72;;;21.10;;
39896;SDS011;25567;48.276;14.242;2023-02-23T12:20:36;52.10;;;21.92;;
39896;SDS011;25567;48.276;14.242;2023-02-23T12:23:10;52.85;;;22.92;;
39896;SDS011;25567;48.276;14.242;2023-02-23T12:25:46;53.17;;;23.40;;
39896;SDS011;25567;48.276;14.242;2023-02-23T12:31:20;52.92;;;22.10;;
39896;SDS011;25567;48.276;14.242;2023-02-23T12:33:56;58.17;;;21.70;;
39896;SDS011;25567;48.276;14.242;2023-02-23T12:36:33;52.08;;;23.08;;
39896;SDS011;25567;48.276;14.242;2023-02-23T12:42:08;48.15;;;21.75;;
39896;SDS011;25567;48.276;14.242;2023-02-23T12:44:53;48.70;;;21.45;;
39896;SDS011;25567;48.276;14.242;2023-02-23T12:47:28;48.78;;;21.33;;
39896;SDS011;25567;48.276;14.242;2023-02-23T12:50:10;47.13;;;21.30;;
39896;SDS011;25567;48.276;14.242;2023-02-23T12:52:54;52.55;;;24.23;;
39896;SDS011;25567;48.276;14.242;2023-02-23T12:55:29;52.33;;;21.90;;
39896;SDS011;25567;48.276;14.242;2023-02-23T13:03:44;51.63;;;21.55;;
39896;SDS011;25567;48.276;14.242;2023-02-23T13:06:28;53.67;;;23.70;;
39896;SDS011;25567;48.276;14.242;2023-02-23T13:14:37;56.47;;;23.75;;
39896;SDS011;25567;48.276;14.242;2023-02-23T13:17:23;48.70;;;22.42;;
39896;SDS011;25567;48.276;14.242;2023-02-23T13:22:51;61.47;;;22.70;;
39896;SDS011;25567;48.276;14.242;2023-02-23T13:31:12;54.90;;;22.20;;
39896;SDS011;25567;48.276;14.242;2023-02-23T13:33:48;57.42;;;23.63;;
39896;SDS011;25567;48.276;14.242;2023-02-23T13:36:18;47.17;;;23.05;;
39896;SDS011;25567;48.276;14.242;2023-02-23T13:44:20;51.00;;;23.10;;
39896;SDS011;25567;48.276;14.242;2023-02-23T13:49:37;51.28;;;22.88;;
39896;SDS011;25567;48.276;14.242;2023-02-23T13:54:58;53.47;;;24.45;;
39896;SDS011;25567;48.276;14.242;2023-02-23T13:57:30;59.58;;;24.02;;
39896;SDS011;25567;48.276;14.242;2023-02-23T14:00:00;51.20;;;24.10;;
39896;SDS011;25567;48.276;14.242;2023-02-23T14:02:38;58.42;;;25.27;;
39896;SDS011;25567;48.276;14.242;2023-02-23T14:05:17;53.10;;;24.27;;
39896;SDS011;25567;48.276;14.242;2023-02-23T14:07:52;55.78;;;25.15;;
39896;SDS011;25567;48.276;14.242;2023-02-23T14:10:26;53.90;;;24.45;;
39896;SDS011;25567;48.276;14.242;2023-02-23T14:15:49;55.38;;;25.50;;
39896;SDS011;25567;48.276;14.242;2023-02-23T14:21:46;57.85;;;25.00;;
39896;SDS011;25567;48.276;14.242;2023-02-23T14:24:20;61.85;;;24.80;;
39896;SDS011;25567;48.276;14.242;2023-02-23T14:32:41;53.88;;;24.88;;
39896;SDS011;25567;48.276;14.242;2023-02-23T14:41:13;58.65;;;25.00;;
39896;SDS011;25567;48.276;14.242;2023-02-23T14:43:41;53.03;;;25.02;;
39896;SDS011;25567;48.276;14.242;2023-02-23T14:46:15;56.17;;;23.45;;
39896;SDS011;25567;48.276;14.242;2023-02-23T14:48:55;58.33;;;23.80;;
39896;SDS011;25567;48.276;14.242;2023-02-23T14:51:33;58.35;;;25.02;;
39896;SDS011;25567;48.276;14.242;2023-02-23T14:54:09;62.78;;;25.35;;
39896;SDS011;25567;48.276;14.242;2023-02-23T14:56:45;60.65;;;25.60;;
39896;SDS011;25567;48.276;14.242;2023-02-23T14:59:17;60.42;;;25.83;;
39896;SDS011;25567;48.276;14.242;2023-02-23T15:01:50;62.38;;;27.92;;
39896;SDS011;25567;48.276;14.242;2023-02-23T15:04:20;66.20;;;26.17;;
39896;SDS011;25567;48.276;14.242;2023-02-23T15:06:52;59.70;;;26.63;;
39896;SDS011;25567;48.276;14.242;2023-02-23T15:09:28;55.88;;;25.05;;
39896;SDS011;25567;48.276;14.242;2023-02-23T15:12:11;53.72;;;23.80;;
39896;SDS011;25567;48.276;14.242;2023-02-23T15:14:48;58.80;;;25.73;;
39896;SDS011;25567;48.276;14.242;2023-02-23T15:17:19;55.65;;;24.23;;
39896;SDS011;25567;48.276;14.242;2023-02-23T15:19:53;57.28;;;24.70;;
39896;SDS011;25567;48.276;14.242;2023-02-23T15:22:41;51.33;;;23.38;;
39896;SDS011;25567;48.276;14.242;2023-02-23T15:25:17;57.53;;;24.92;;
39896;SDS011;25567;48.276;14.242;2023-02-23T15:27:49;62.50;;;24.77;;
39896;SDS011;25567;48.276;14.242;2023-02-23T15:30:24;65.47;;;28.00;;
39896;SDS011;25567;48.276;14.242;2023-02-23T15:32:59;56.85;;;24.23;;
39896;SDS011;25567;48.276;14.242;2023-02-23T15:35:29;51.10;;;24.25;;
39896;SDS011;25567;48.276;14.242;2023-02-23T15:38:01;53.88;;;24.98;;
39896;SDS011;25567;48.276;14.242;2023-02-23T15:40:56;53.65;;;25.50;;
39896;SDS011;25567;48.276;14.242;2023-02-23T15:43:30;50.85;;;23.70;;
39896;SDS011;25567;48.276;14.242;2023-02-23T15:46:01;54.42;;;25.00;;
39896;SDS011;25567;48.276;14.242;2023-02-23T15:51:21;62.13;;;26.80;;
39896;SDS011;25567;48.276;14.242;2023-02-23T15:53:51;62.75;;;25.45;;
39896;SDS011;25567;48.276;14.242;2023-02-23T15:56:23;60.72;;;27.70;;
39896;SDS011;25567;48.276;14.242;2023-02-23T15:58:56;67.72;;;28.60;;
39896;SDS011;25567;48.276;14.242;2023-02-23T16:01:30;67.10;;;28.17;;
39896;SDS011;25567;48.276;14.242;2023-02-23T16:04:01;58.17;;;25.75;;
39896;SDS011;25567;48.276;14.242;2023-02-23T16:06:31;55.70;;;25.20;;
39896;SDS011;25567;48.276;14.242;2023-02-23T16:09:14;53.92;;;25.20;;
39896;SDS011;25567;48.276;14.242;2023-02-23T16:17:23;63.45;;;25.02;;
39896;SDS011;25567;48.276;14.242;2023-02-23T16:19:55;54.20;;;25.17;;
39896;SDS011;25567;48.276;14.242;2023-02-23T16:22:41;60.33;;;25.35;;
39896;SDS011;25567;48.276;14.242;2023-02-23T16:25:13;58.03;;;25.35;;
39896;SDS011;25567;48.276;14.242;2023-02-23T16:27:59;66.65;;;26.33;;
39896;SDS011;25567;48.276;14.242;2023-02-23T16:33:04;58.25;;;26.08;;
39896;SDS011;25567;48.276;14.242;2023-02-23T16:35:42;58.15;;;25.33;;
39896;SDS011;25567;48.276;14.242;2023-02-23T16:38:24;62.25;;;26.33;;
39896;SDS011;25567;48.276;14.242;2023-02-23T16:40:54;62.75;;;27.45;;
39896;SDS011;25567;48.276;14.242;2023-02-23T16:43:24;56.13;;;26.02;;
39896;SDS011;25567;48.276;14.242;2023-02-23T16:45:52;59.90;;;26.20;;
39896;SDS011;25567;48.276;14.242;2023-02-23T16:48:20;57.83;;;25.73;;
39896;SDS011;25567;48.276;14.242;2023-02-23T16:50:51;61.40;;;26.17;;
39896;SDS011;25567;48.276;14.242;2023-02-23T16:53:18;54.05;;;26.15;;
39896;SDS011;25567;48.276;14.242;2023-02-23T16:55:51;56.75;;;26.42;;
39896;SDS011;25567;48.276;14.242;2023-02-23T16:58:22;62.88;;;28.17;;
39896;SDS011;25567;48.276;14.242;2023-02-23T17:00:52;59.45;;;26.58;;